Time;durP1;ratioP1;P1;durP2;ratioP2;P2;SDS_P1;SDS_P2;PMS_P1;PMS_P2;Temp;Humidity;BMP_temperature;BMP_pressure;BME280_temperature;BME280_humidity;BME280_pressure;Samples;Min_cycle;Max_cycle;Signal;HPM_P1;HPM_P2
2023/06/21 00:00:38;;;;;;;0.47;0.40;;;24.50;99.90;;;;;;5031981;28;20026;-86
2023/06/21 00:03:04;;;;;;;0.90;0.85;;;24.60;99.90;;;;;;5032487;28;20118;-86
2023/06/21 00:05:30;;;;;;;0.95;0.63;;;24.60;99.90;;;;;;5015077;28;20025;-85
2023/06/21 00:07:56;;;;;;;0.28;0.28;;;24.60;99.90;;;;;;5032454;28;20029;-86
2023/06/21 00:10:25;;;;;;;0.28;0.28;;;24.90;99.90;;;;;;5032360;28;20033;-86
2023/06/21 00:12:52;;;;;;;0.98;0.55;;;24.80;99.90;;;;;;5032096;28;20028;-86
2023/06/21 00:15:18;;;;;;;0.70;0.52;;;24.80;99.90;;;;;;5032017;28;20044;-86
2023/06/21 00:17:43;;;;;;;0.30;0.20;;;24.70;99.90;;;;;;5032221;28;20037;-85
2023/06/21 00:20:10;;;;;;;0.38;0.38;;;24.80;99.90;;;;;;5032544;28;20033;-86
2023/06/21 00:22:37;;;;;;;0.10;0.10;;;24.80;99.90;;;;;;5032077;28;20079;-86
2023/06/21 00:25:03;;;;;;;0.45;0.40;;;24.90;99.90;;;;;;5032182;28;20029;-86
2023/06/21 00:27:28;;;;;;;3.50;0.28;;;24.90;99.90;;;;;;5032063;28;20060;-86
2023/06/21 00:29:54;;;;;;;0.15;0.15;;;24.90;99.90;;;;;;5030806;28;20053;-86
2023/06/21 00:32:20;;;;;;;0.32;0.32;;;24.70;99.90;;;;;;5012754;28;20029;-85
2023/06/21 00:34:47;;;;;;;0.10;0.10;;;24.70;99.90;;;;;;5016571;28;20029;-86
2023/06/21 00:37:15;;;;;;;0.22;0.22;;;24.60;99.90;;;;;;5016026;28;20414;-86
2023/06/21 00:39:41;;;;;;;0.20;0.20;;;24.60;99.90;;;;;;5016549;28;20029;-85
2023/06/21 00:42:07;;;;;;;0.10;0.10;;;24.60;99.90;;;;;;5020213;28;20101;-86
2023/06/21 00:44:33;;;;;;;1.27;0.85;;;24.50;99.90;;;;;;5035822;28;20022;-86
2023/06/21 00:46:59;;;;;;;1.10;0.70;;;24.30;99.90;;;;;;5035955;28;20040;-86
2023/06/21 00:49:25;;;;;;;0.88;0.57;;;24.40;99.90;;;;;;5036292;28;20164;-86
2023/06/21 00:51:58;;;;;;;0.32;0.32;;;24.30;99.90;;;;;;5035882;28;20021;-86
2023/06/21 00:54:29;;;;;;;0.80;0.38;;;24.30;99.90;;;;;;5035884;28;20021;-86
2023/06/21 00:56:56;;;;;;;0.63;0.52;;;24.40;99.90;;;;;;5035647;28;20068;-85
2023/06/21 00:59:23;;;;;;;0.68;0.60;;;24.30;99.90;;;;;;5035386;28;20096;-86
2023/06/21 01:01:49;;;;;;;0.30;0.30;;;24.30;99.90;;;;;;5035823;28;20035;-86
2023/06/21 01:04:15;;;;;;;1.20;0.63;;;24.20;99.90;;;;;;5035713;28;20025;-86
2023/06/21 01:06:47;;;;;;;0.20;0.20;;;24.00;99.90;;;;;;5036042;28;20401;-86
2023/06/21 01:09:59;;;;;;;0.32;0.32;;;24.10;99.90;;;;;;5035726;28;20049;-85
2023/06/21 01:12:36;;;;;;;0.30;0.30;;;24.20;99.90;;;;;;5035626;28;20037;-86
2023/06/21 01:15:07;;;;;;;0.43;0.43;;;24.10;99.90;;;;;;5035233;28;20421;-86
2023/06/21 01:17:37;;;;;;;0.57;0.57;;;24.00;99.90;;;;;;5035336;28;20030;-85
2023/06/21 01:20:10;;;;;;;0.80;0.70;;;23.90;99.90;;;;;;5035299;28;20056;-85
2023/06/21 01:22:51;;;;;;;0.00;0.00;;;24.00;99.90;;;;;;5035289;28;20082;-86
2023/06/21 01:25:50;;;;;;;0.32;0.32;;;24.00;99.90;;;;;;5035212;28;20030;-86
2023/06/21 01:28:39;;;;;;;0.40;0.40;;;23.90;99.90;;;;;;5034921;28;20037;-86
2023/06/21 01:31:06;;;;;;;0.00;0.00;;;23.80;99.90;;;;;;5035084;28;20044;-86
2023/06/21 01:33:33;;;;;;;0.28;0.28;;;23.80;99.90;;;;;;5035083;28;20063;-86
2023/06/21 01:36:03;;;;;;;0.03;0.03;;;23.90;99.90;;;;;;5034742;28;20026;-85
2023/06/21 01:38:29;;;;;;;0.35;0.30;;;23.80;99.90;;;;;;5034938;28;20022;-86
2023/06/21 01:40:55;;;;;;;0.30;0.28;;;23.50;99.90;;;;;;5034784;28;20167;-85
2023/06/21 01:43:21;;;;;;;0.52;0.43;;;23.70;99.90;;;;;;5034279;28;20033;-86
2023/06/21 01:45:47;;;;;;;0.10;0.10;;;23.70;99.90;;;;;;5034973;28;20045;-86
2023/06/21 01:48:14;;;;;;;0.10;0.10;;;23.70;99.90;;;;;;5034831;28;20025;-86
2023/06/21 01:50:40;;;;;;;0.10;0.10;;;23.70;99.90;;;;;;5035132;28;20110;-86
2023/06/21 01:53:07;;;;;;;0.17;0.17;;;23.70;99.90;;;;;;5034924;28;20025;-86
2023/06/21 01:55:34;;;;;;;0.30;0.30;;;23.60;99.90;;;;;;5034552;28;20033;-86
2023/06/21 01:58:00;;;;;;;0.10;0.10;;;23.60;99.90;;;;;;5034206;28;20065;-86
2023/06/21 02:00:26;;;;;;;0.10;0.10;;;23.60;99.90;;;;;;5034963;28;20492;-86
2023/06/21 02:02:59;;;;;;;0.28;0.28;;;23.50;99.90;;;;;;5034454;28;20379;-86
2023/06/21 02:05:25;;;;;;;0.00;0.00;;;23.60;99.90;;;;;;5034576;28;20036;-86
2023/06/21 02:07:53;;;;;;;0.65;0.20;;;23.50;99.90;;;;;;5034601;28;20022;-86
2023/06/21 02:10:19;;;;;;;0.20;0.20;;;23.50;99.90;;;;;;5034421;28;20029;-85
2023/06/21 02:12:50;;;;;;;0.20;0.15;;;23.30;99.90;;;;;;5033925;28;20031;-85
2023/06/21 02:15:17;;;;;;;0.10;0.10;;;23.20;99.90;;;;;;5034370;28;20454;-85
2023/06/21 02:17:48;;;;;;;0.70;0.47;;;23.20;99.90;;;;;;5034681;28;20109;-85
2023/06/21 02:20:14;;;;;;;0.10;0.10;;;23.30;99.90;;;;;;5034357;28;20014;-86
2023/06/21 02:22:40;;;;;;;0.00;0.00;;;23.30;99.90;;;;;;5034084;28;20057;-86
2023/06/21 02:25:07;;;;;;;0.10;0.10;;;23.30;99.90;;;;;;5034088;28;20099;-86
2023/06/21 02:27:32;;;;;;;0.10;0.10;;;23.30;99.90;;;;;;5033688;28;20033;-86
2023/06/21 02:29:58;;;;;;;0.20;0.20;;;23.20;99.90;;;;;;5034262;28;20040;-86
2023/06/21 02:32:24;;;;;;;0.55;0.32;;;23.20;99.90;;;;;;5034064;28;20151;-86
2023/06/21 02:34:49;;;;;;;0.57;0.47;;;23.10;99.90;;;;;;5033934;28;20060;-85
2023/06/21 02:37:15;;;;;;;0.10;0.10;;;23.10;99.90;;;;;;5033553;28;20145;-86
2023/06/21 02:39:40;;;;;;;0.00;0.00;;;23.10;99.90;;;;;;5033981;28;20030;-85
2023/06/21 02:42:06;;;;;;;0.00;0.00;;;23.10;99.90;;;;;;5033402;28;20196;-86
2023/06/21 02:44:31;;;;;;;0.10;0.10;;;23.10;99.90;;;;;;5034425;28;20005;-86
2023/06/21 02:46:58;;;;;;;0.00;0.00;;;23.10;99.90;;;;;;5033910;28;20474;-86
2023/06/21 02:49:24;;;;;;;0.20;0.20;;;23.10;99.90;;;;;;5033629;28;20428;-85
2023/06/21 02:51:52;;;;;;;0.10;0.10;;;23.00;99.90;;;;;;5033703;28;20080;-86
2023/06/21 02:54:18;;;;;;;0.57;0.13;;;22.90;99.90;;;;;;5033322;28;20445;-86
2023/06/21 02:56:44;;;;;;;0.10;0.10;;;22.90;99.90;;;;;;5032621;28;20029;-85
2023/06/21 02:59:11;;;;;;;0.20;0.20;;;22.80;99.90;;;;;;5034032;28;20036;-86
2023/06/21 03:01:36;;;;;;;0.00;0.00;;;22.80;99.90;;;;;;5015699;28;20033;-85
2023/06/21 03:04:02;;;;;;;0.10;0.10;;;22.90;99.90;;;;;;5033494;28;20022;-85
2023/06/21 03:06:29;;;;;;;0.13;0.13;;;22.80;99.90;;;;;;5033318;28;20033;-86
2023/06/21 03:08:58;;;;;;;0.30;0.20;;;22.60;99.90;;;;;;5033080;28;20438;-86
2023/06/21 03:11:24;;;;;;;0.10;0.10;;;22.60;99.90;;;;;;5033644;28;20033;-85
2023/06/21 03:13:49;;;;;;;0.20;0.20;;;22.70;99.90;;;;;;5033171;28;20072;-85
2023/06/21 03:16:15;;;;;;;0.30;0.30;;;22.70;99.90;;;;;;5033187;28;20037;-86
2023/06/21 03:18:41;;;;;;;0.28;0.28;;;22.80;99.90;;;;;;5033071;28;20033;-85
2023/06/21 03:21:08;;;;;;;0.10;0.10;;;22.70;99.90;;;;;;5033365;28;20375;-85
2023/06/21 03:23:33;;;;;;;0.38;0.38;;;22.80;99.90;;;;;;5032753;28;20025;-86
2023/06/21 03:25:59;;;;;;;0.10;0.10;;;22.70;99.90;;;;;;5033042;28;20078;-86
2023/06/21 03:28:25;;;;;;;0.10;0.10;;;22.60;99.90;;;;;;5033346;28;20094;-86
2023/06/21 03:30:51;;;;;;;0.00;0.00;;;22.70;99.90;;;;;;5032896;28;20227;-85
2023/06/21 03:33:16;;;;;;;0.45;0.43;;;22.70;99.90;;;;;;5032883;28;20486;-85
2023/06/21 03:35:42;;;;;;;0.43;0.35;;;22.60;99.90;;;;;;5032807;28;20029;-86
2023/06/21 03:38:08;;;;;;;0.40;0.40;;;22.50;99.90;;;;;;5032436;28;20132;-86
2023/06/21 03:40:34;;;;;;;0.20;0.20;;;22.50;99.90;;;;;;5032991;28;20106;-86
2023/06/21 03:43:00;;;;;;;0.20;0.20;;;22.60;99.90;;;;;;5032521;28;20112;-86
2023/06/21 03:45:25;;;;;;;0.10;0.10;;;22.70;99.90;;;;;;5033098;28;20117;-85
2023/06/21 03:47:51;;;;;;;0.25;0.20;;;22.80;99.90;;;;;;5032675;28;20029;-86
2023/06/21 03:50:17;;;;;;;0.10;0.10;;;22.70;99.90;;;;;;5032482;28;20057;-85
2023/06/21 03:52:43;;;;;;;0.10;0.10;;;22.70;99.90;;;;;;5032073;28;20386;-86
2023/06/21 03:55:09;;;;;;;0.57;0.57;;;22.60;99.90;;;;;;5032800;28;20470;-85
2023/06/21 03:57:35;;;;;;;0.10;0.10;;;22.50;99.90;;;;;;5032420;28;20029;-86
2023/06/21 04:00:00;;;;;;;2.72;0.65;;;22.20;99.90;;;;;;5032613;28;20466;-86
2023/06/21 04:02:26;;;;;;;0.50;0.50;;;22.40;99.90;;;;;;5032362;28;20219;-85
2023/06/21 04:04:52;;;;;;;0.35;0.30;;;22.50;99.90;;;;;;5032295;28;20383;-85
2023/06/21 04:07:19;;;;;;;0.13;0.13;;;22.70;99.90;;;;;;5031865;28;20043;-86
2023/06/21 04:09:45;;;;;;;0.15;0.13;;;22.70;99.90;;;;;;5015217;28;20431;-85
2023/06/21 04:12:11;;;;;;;2.85;0.93;;;22.40;99.90;;;;;;5032077;28;20522;-86
2023/06/21 04:14:37;;;;;;;0.10;0.10;;;22.70;99.90;;;;;;5032128;28;20453;-85
2023/06/21 04:17:03;;;;;;;0.25;0.25;;;22.60;99.90;;;;;;5032493;28;20025;-86
2023/06/21 04:19:29;;;;;;;0.30;0.30;;;22.70;99.90;;;;;;5032037;28;20033;-86
2023/06/21 04:21:55;;;;;;;0.10;0.10;;;22.80;99.90;;;;;;5032087;28;20079;-85
2023/06/21 04:24:20;;;;;;;0.00;0.00;;;22.80;99.90;;;;;;5032139;28;20041;-85
2023/06/21 04:26:47;;;;;;;0.95;0.80;;;22.70;99.90;;;;;;5032106;28;20537;-85
2023/06/21 04:29:16;;;;;;;0.63;0.63;;;22.80;99.90;;;;;;5014503;28;20115;-86
2023/06/21 04:31:42;;;;;;;1.33;0.28;;;22.60;99.90;;;;;;5032037;28;20121;-85
2023/06/21 04:34:08;;;;;;;0.20;0.20;;;22.50;99.90;;;;;;5031985;28;20041;-86
2023/06/21 04:36:34;;;;;;;0.30;0.30;;;22.50;99.90;;;;;;5031465;28;20099;-86
2023/06/21 04:39:00;;;;;;;0.75;0.75;;;22.30;99.90;;;;;;5032420;28;20025;-85
2023/06/21 04:41:26;;;;;;;1.75;0.70;;;22.30;99.90;;;;;;5032045;28;20021;-86
2023/06/21 04:43:51;;;;;;;0.35;0.35;;;22.40;99.90;;;;;;5031772;28;20493;-86
2023/06/21 04:46:18;;;;;;;0.10;0.10;;;22.70;99.90;;;;;;5032100;28;20021;-86
2023/06/21 04:48:46;;;;;;;0.28;0.28;;;22.80;99.90;;;;;;5032169;28;20057;-86
2023/06/21 04:51:15;;;;;;;3.90;0.20;;;22.70;99.90;;;;;;5013858;28;20026;-85
2023/06/21 04:53:41;;;;;;;0.70;0.70;;;22.60;99.90;;;;;;5031931;28;20040;-86
2023/06/21 04:56:07;;;;;;;1.27;0.65;;;22.60;99.90;;;;;;5032044;28;20107;-86
2023/06/21 04:58:35;;;;;;;0.80;0.80;;;22.60;99.90;;;;;;5031970;28;20029;-86
2023/06/21 05:01:01;;;;;;;0.50;0.50;;;22.60;99.90;;;;;;5031655;28;20041;-85
2023/06/21 05:03:27;;;;;;;0.63;0.52;;;22.70;99.90;;;;;;5031578;28;20405;-85
2023/06/21 05:05:52;;;;;;;0.32;0.32;;;22.70;99.90;;;;;;5031566;28;20221;-85
2023/06/21 05:08:18;;;;;;;3.60;1.17;;;22.90;99.90;;;;;;5031769;28;20382;-86
2023/06/21 05:10:43;;;;;;;0.88;0.40;;;23.00;99.90;;;;;;5032281;28;20033;-86
2023/06/21 05:13:09;;;;;;;0.50;0.50;;;22.90;99.90;;;;;;5031801;28;20435;-86
2023/06/21 05:15:35;;;;;;;0.28;0.28;;;22.90;99.90;;;;;;5031551;28;20032;-86
2023/06/21 05:18:00;;;;;;;0.45;0.25;;;22.90;99.90;;;;;;5013814;28;20034;-86
2023/06/21 05:20:26;;;;;;;1.42;0.77;;;23.00;99.90;;;;;;5034474;28;20022;-86
2023/06/21 05:22:52;;;;;;;0.17;0.17;;;23.10;99.90;;;;;;5035271;28;20033;-85
2023/06/21 05:25:18;;;;;;;0.57;0.45;;;23.10;99.90;;;;;;5035080;28;20521;-86
2023/06/21 05:27:44;;;;;;;0.38;0.38;;;23.10;99.90;;;;;;5035595;28;20033;-85
2023/06/21 05:30:10;;;;;;;2.00;0.73;;;23.00;99.90;;;;;;5035029;28;20036;-85
2023/06/21 05:32:35;;;;;;;0.50;0.47;;;23.00;99.90;;;;;;5035051;28;20018;-86
2023/06/21 05:35:01;;;;;;;0.10;0.10;;;23.00;99.90;;;;;;5034731;28;20033;-86
2023/06/21 05:37:27;;;;;;;0.40;0.40;;;23.00;99.90;;;;;;5034545;28;20049;-85
2023/06/21 05:39:53;;;;;;;0.55;0.30;;;23.10;99.90;;;;;;5034966;28;20470;-85
2023/06/21 05:42:18;;;;;;;1.13;0.50;;;23.10;99.90;;;;;;5034751;28;20033;-86
2023/06/21 05:44:44;;;;;;;0.50;0.50;;;23.10;99.90;;;;;;5034875;28;20025;-85
2023/06/21 05:47:10;;;;;;;0.45;0.28;;;23.00;99.90;;;;;;5034675;28;20055;-85
2023/06/21 05:49:35;;;;;;;0.15;0.15;;;23.10;99.90;;;;;;5034871;28;20028;-86
2023/06/21 05:52:02;;;;;;;0.47;0.47;;;23.20;99.90;;;;;;5034482;28;20053;-86
2023/06/21 05:54:28;;;;;;;0.28;0.25;;;23.20;99.90;;;;;;5034774;28;20025;-86
2023/06/21 05:56:55;;;;;;;0.52;0.20;;;23.20;99.90;;;;;;5034581;28;20033;-86
2023/06/21 05:59:20;;;;;;;1.33;0.65;;;23.00;99.90;;;;;;5034580;28;20060;-86
2023/06/21 06:01:46;;;;;;;0.95;0.90;;;23.10;99.90;;;;;;5034640;28;20454;-86
2023/06/21 06:04:11;;;;;;;0.65;0.65;;;23.10;99.90;;;;;;5034168;28;20410;-86
2023/06/21 06:06:39;;;;;;;0.77;0.75;;;23.30;99.90;;;;;;5034890;28;20072;-85
2023/06/21 06:09:09;;;;;;;0.55;0.55;;;23.40;99.90;;;;;;5034498;28;20386;-86
2023/06/21 06:11:35;;;;;;;1.27;0.95;;;23.60;99.90;;;;;;5034307;28;20083;-85
2023/06/21 06:14:01;;;;;;;0.65;0.65;;;23.60;99.90;;;;;;5034304;28;20018;-86
2023/06/21 06:16:26;;;;;;;1.77;0.68;;;23.50;99.90;;;;;;5034582;28;20470;-86
2023/06/21 06:18:53;;;;;;;0.75;0.70;;;23.40;99.90;;;;;;5034046;28;20033;-86
2023/06/21 06:21:21;;;;;;;0.68;0.50;;;23.40;99.90;;;;;;5034291;28;20024;-86
2023/06/21 06:23:49;;;;;;;0.70;0.70;;;23.50;99.90;;;;;;5034184;28;20040;-85
2023/06/21 06:26:16;;;;;;;0.43;0.43;;;23.60;99.90;;;;;;5034199;28;20450;-85
2023/06/21 06:28:42;;;;;;;1.50;0.95;;;23.60;99.90;;;;;;5034198;28;20100;-86
2023/06/21 06:31:07;;;;;;;0.55;0.52;;;23.60;99.90;;;;;;5033671;28;20113;-85
2023/06/21 06:33:33;;;;;;;0.93;0.82;;;23.70;99.90;;;;;;5033755;28;20098;-86
2023/06/21 06:35:59;;;;;;;0.30;0.30;;;23.70;99.90;;;;;;5034005;28;20390;-85
2023/06/21 06:38:25;;;;;;;0.63;0.57;;;23.70;99.90;;;;;;5034106;28;20466;-86
2023/06/21 06:40:51;;;;;;;1.30;1.15;;;23.70;99.90;;;;;;5033921;28;20025;-86
2023/06/21 06:43:16;;;;;;;1.40;0.40;;;23.90;99.90;;;;;;5033954;28;20033;-86
2023/06/21 06:45:42;;;;;;;0.88;0.70;;;24.10;99.90;;;;;;5033764;28;20014;-86
2023/06/21 06:48:07;;;;;;;1.65;0.98;;;24.20;99.90;;;;;;5033868;28;20033;-86
2023/06/21 06:50:36;;;;;;;1.20;0.40;;;24.40;99.90;;;;;;5033460;28;20025;-86
2023/06/21 06:53:02;;;;;;;0.88;0.88;;;24.50;99.90;;;;;;5033716;28;20445;-86
2023/06/21 06:55:28;;;;;;;0.45;0.45;;;24.30;99.90;;;;;;5033561;28;20028;-86
2023/06/21 06:57:53;;;;;;;1.17;1.00;;;24.40;99.90;;;;;;5034028;28;20041;-86
2023/06/21 07:00:19;;;;;;;0.95;0.95;;;24.50;99.90;;;;;;5033337;28;20382;-86
2023/06/21 07:02:44;;;;;;;0.60;0.60;;;24.50;99.90;;;;;;5033017;28;20037;-86
2023/06/21 07:05:10;;;;;;;0.57;0.57;;;24.70;99.90;;;;;;5033408;28;20031;-86
2023/06/21 07:07:35;;;;;;;0.40;0.30;;;24.90;99.90;;;;;;5033570;28;20104;-86
2023/06/21 07:10:01;;;;;;;1.45;0.35;;;25.10;99.90;;;;;;5033305;28;20088;-86
2023/06/21 07:12:27;;;;;;;2.92;1.23;;;25.40;99.90;;;;;;5033370;28;20296;-86
2023/06/21 07:14:53;;;;;;;0.50;0.50;;;25.40;99.90;;;;;;5033226;28;20038;-86
2023/06/21 07:17:19;;;;;;;0.70;0.70;;;25.50;99.90;;;;;;5033022;28;20382;-86
2023/06/21 07:19:45;;;;;;;1.45;0.68;;;25.50;99.90;;;;;;5033258;28;20057;-86
2023/06/21 07:22:11;;;;;;;0.90;0.60;;;25.60;99.90;;;;;;5033174;28;20041;-86
2023/06/21 07:24:36;;;;;;;0.60;0.60;;;25.80;99.90;;;;;;5033296;28;20029;-86
2023/06/21 07:27:02;;;;;;;0.45;0.45;;;25.90;99.90;;;;;;5032929;28;20466;-86
2023/06/21 07:29:28;;;;;;;0.77;0.57;;;26.10;99.90;;;;;;5032814;28;20029;-86
2023/06/21 07:31:53;;;;;;;0.50;0.50;;;25.90;99.90;;;;;;5032497;28;20022;-86
2023/06/21 07:34:19;;;;;;;0.47;0.47;;;26.00;99.90;;;;;;5032871;28;20033;-85
2023/06/21 07:36:44;;;;;;;0.82;0.60;;;26.10;99.90;;;;;;5032796;28;20055;-86
2023/06/21 07:39:10;;;;;;;0.30;0.30;;;26.20;99.90;;;;;;5032812;28;20029;-86
2023/06/21 07:41:36;;;;;;;0.22;0.22;;;26.50;99.90;;;;;;5032360;28;20067;-86
2023/06/21 07:44:01;;;;;;;0.40;0.40;;;26.80;99.90;;;;;;5032350;28;20083;-86
2023/06/21 07:46:27;;;;;;;0.70;0.70;;;26.70;99.90;;;;;;5032467;28;20454;-86
2023/06/21 07:48:52;;;;;;;0.40;0.40;;;26.60;99.90;;;;;;5032665;28;20048;-86
2023/06/21 07:51:18;;;;;;;0.60;0.50;;;26.70;99.90;;;;;;5032409;28;20100;-86
2023/06/21 07:53:44;;;;;;;1.85;0.70;;;26.60;99.90;;;;;;5015095;28;20031;-86
2023/06/21 07:56:13;;;;;;;7.82;0.93;;;26.50;99.90;;;;;;5032408;28;20116;-86
2023/06/21 07:58:41;;;;;;;1.33;0.82;;;26.50;99.90;;;;;;5032399;28;20047;-86
2023/06/21 08:01:07;;;;;;;0.32;0.32;;;26.50;99.90;;;;;;5032161;28;20017;-86
2023/06/21 08:03:32;;;;;;;0.22;0.22;;;26.60;99.90;;;;;;5032474;28;20033;-86
2023/06/21 08:05:58;;;;;;;0.22;0.22;;;26.80;99.90;;;;;;5032380;28;20018;-86
2023/06/21 08:08:23;;;;;;;0.30;0.30;;;26.80;99.90;;;;;;5033012;28;20366;-86
2023/06/21 08:10:49;;;;;;;0.28;0.10;;;26.90;99.90;;;;;;5032174;28;20033;-86
2023/06/21 08:13:18;;;;;;;0.30;0.30;;;27.00;99.90;;;;;;5031909;28;20432;-85
2023/06/21 08:15:45;;;;;;;0.20;0.20;;;27.20;99.90;;;;;;5032079;28;20482;-86
2023/06/21 08:18:10;;;;;;;0.10;0.10;;;27.40;99.90;;;;;;5032140;28;20041;-86
2023/06/21 08:20:36;;;;;;;0.40;0.40;;;27.50;99.90;;;;;;5014532;28;20013;-86
2023/06/21 08:23:01;;;;;;;0.35;0.35;;;27.60;99.90;;;;;;5032253;28;20112;-86
2023/06/21 08:25:28;;;;;;;0.43;0.30;;;27.60;99.90;;;;;;5032341;28;20025;-86
2023/06/21 08:27:54;;;;;;;2.92;1.05;;;27.30;99.90;;;;;;5031724;28;20029;-86
2023/06/21 08:30:21;;;;;;;0.47;0.47;;;27.20;99.90;;;;;;5032188;28;20084;-86
2023/06/21 08:32:47;;;;;;;0.50;0.50;;;27.20;99.90;;;;;;5031953;28;20112;-87
2023/06/21 08:35:12;;;;;;;0.52;0.52;;;27.20;99.90;;;;;;5032043;28;20052;-86
2023/06/21 08:37:39;;;;;;;3.75;0.73;;;27.00;99.90;;;;;;5031712;28;20049;-86
2023/06/21 08:40:07;;;;;;;0.38;0.38;;;27.10;99.90;;;;;;5031789;28;20025;-86
2023/06/21 08:42:32;;;;;;;0.30;0.30;;;27.30;99.90;;;;;;5031828;28;20175;-85
2023/06/21 08:44:58;;;;;;;0.35;0.32;;;27.40;99.90;;;;;;5031816;28;20025;-86
2023/06/21 08:47:28;;;;;;;0.35;0.35;;;27.20;99.90;;;;;;5032003;28;20037;-86
2023/06/21 08:49:58;;;;;;;4.07;1.80;;;27.20;99.90;;;;;;5031859;28;20044;-86
2023/06/21 08:52:27;;;;;;;1.05;0.55;;;27.00;99.90;;;;;;5014181;28;20034;-86
2023/06/21 08:55:03;;;;;;;6.03;0.93;;;27.00;99.90;;;;;;5034318;28;20026;-86
2023/06/21 08:57:32;;;;;;;0.45;0.45;;;27.00;99.90;;;;;;5035385;28;20152;-86
2023/06/21 09:00:01;;;;;;;0.60;0.60;;;27.00;99.90;;;;;;5035686;28;20032;-85
2023/06/21 09:02:45;;;;;;;1.45;0.95;;;26.90;99.90;;;;;;5035789;28;20094;-86
2023/06/21 09:05:19;;;;;;;0.40;0.40;;;26.90;99.90;;;;;;5035649;28;20049;-86
2023/06/21 09:07:45;;;;;;;0.88;0.85;;;27.00;99.90;;;;;;5035573;28;20033;-86
2023/06/21 09:10:15;;;;;;;0.50;0.50;;;26.90;99.90;;;;;;5035286;28;20017;-86
2023/06/21 09:12:43;;;;;;;0.95;0.95;;;27.10;99.90;;;;;;5017444;28;20508;-86
2023/06/21 09:15:09;;;;;;;0.60;0.60;;;27.30;99.90;;;;;;5035710;28;20620;-86
2023/06/21 09:17:36;;;;;;;0.65;0.65;;;27.40;99.90;;;;;;5035343;28;20124;-86
2023/06/21 09:20:03;;;;;;;3.30;1.20;;;27.50;99.90;;;;;;5035304;28;20017;-86
2023/06/21 09:22:30;;;;;;;0.40;0.38;;;27.20;99.90;;;;;;5035094;28;20156;-86
2023/06/21 09:24:56;;;;;;;1.40;1.13;;;26.90;99.90;;;;;;5035708;28;20104;-86
2023/06/21 09:27:22;;;;;;;0.30;0.20;;;27.00;99.90;;;;;;5017211;28;20543;-85
2023/06/21 09:29:48;;;;;;;0.40;0.38;;;26.80;99.90;;;;;;5035402;28;20037;-86
2023/06/21 09:32:14;;;;;;;0.20;0.20;;;26.70;99.90;;;;;;5035072;28;20052;-86
2023/06/21 09:34:39;;;;;;;1.08;0.98;;;26.70;99.90;;;;;;5035279;28;20467;-86
2023/06/21 09:37:05;;;;;;;0.50;0.50;;;26.80;99.90;;;;;;5034939;28;20213;-86
2023/06/21 09:39:30;;;;;;;0.52;0.52;;;26.80;99.90;;;;;;5035172;28;20110;-86
2023/06/21 09:41:56;;;;;;;2.30;0.50;;;26.60;99.90;;;;;;5034570;28;20033;-86
2023/06/21 09:44:21;;;;;;;0.75;0.75;;;26.50;99.90;;;;;;5035247;28;20025;-86
2023/06/21 09:46:58;;;;;;;0.35;0.35;;;26.40;99.90;;;;;;5034650;28;20034;-86
2023/06/21 09:49:27;;;;;;;0.95;0.50;;;26.40;99.90;;;;;;5035292;28;20418;-86
2023/06/21 09:51:53;;;;;;;6.32;1.45;;;26.20;99.90;;;;;;5034858;28;20482;-86
2023/06/21 09:54:19;;;;;;;0.88;0.50;;;26.00;99.90;;;;;;5034538;28;20075;-86
2023/06/21 09:56:45;;;;;;;0.25;0.25;;;25.90;99.90;;;;;;5034252;28;20056;-86
2023/06/21 09:59:18;;;;;;;0.47;0.47;;;26.00;99.90;;;;;;5035061;28;20389;-86
2023/06/21 10:01:47;;;;;;;1.00;0.60;;;25.70;99.90;;;;;;5034886;28;20033;-86
2023/06/21 10:04:15;;;;;;;0.30;0.30;;;25.60;99.90;;;;;;5034141;28;20036;-85
2023/06/21 10:06:51;;;;;;;0.75;0.75;;;25.70;99.90;;;;;;5034444;28;20037;-86
2023/06/21 10:09:18;;;;;;;3.35;1.42;;;25.10;99.90;;;;;;5034437;28;20032;-85
2023/06/21 10:11:44;;;;;;;0.43;0.43;;;24.90;99.90;;;;;;5034261;28;20060;-86
2023/06/21 10:14:23;;;;;;;0.65;0.52;;;24.90;99.90;;;;;;5034670;28;20418;-85
2023/06/21 10:16:56;;;;;;;0.43;0.43;;;25.20;99.90;;;;;;5034284;28;20607;-85
2023/06/21 10:19:23;;;;;;;1.55;1.27;;;25.30;99.90;;;;;;5034210;28;20018;-86
2023/06/21 10:22:13;;;;;;;1.02;1.02;;;25.40;99.90;;;;;;5034362;28;20064;-85
2023/06/21 10:24:49;;;;;;;0.77;0.52;;;25.60;99.90;;;;;;5034062;28;20080;-85
2023/06/21 10:27:17;;;;;;;0.22;0.22;;;25.70;99.90;;;;;;5034397;28;20037;-85
2023/06/21 10:29:44;;;;;;;0.10;0.10;;;26.00;99.90;;;;;;5016397;28;20382;-85
2023/06/21 10:32:10;;;;;;;0.40;0.40;;;26.10;99.90;;;;;;5033930;28;20029;-85
2023/06/21 10:35:03;;;;;;;0.65;0.43;;;26.20;99.90;;;;;;5033929;28;20056;-85
2023/06/21 10:37:51;;;;;;;0.55;0.55;;;26.20;99.90;;;;;;5033469;28;20107;-85
2023/06/21 10:40:18;;;;;;;0.20;0.20;;;26.00;99.90;;;;;;5033731;28;20032;-85
2023/06/21 10:42:45;;;;;;;0.60;0.57;;;26.20;99.90;;;;;;5033532;28;20401;-86
2023/06/21 10:45:11;;;;;;;0.43;0.43;;;26.50;99.90;;;;;;5034148;28;20029;-86
2023/06/21 10:47:38;;;;;;;0.82;0.50;;;26.50;99.90;;;;;;5033799;28;20032;-86
2023/06/21 10:50:06;;;;;;;0.70;0.50;;;26.60;99.90;;;;;;5034073;28;20105;-85
2023/06/21 10:52:33;;;;;;;0.20;0.20;;;27.00;99.90;;;;;;5033390;28;20067;-86
2023/06/21 10:55:00;;;;;;;0.68;0.43;;;27.30;99.90;;;;;;5033418;28;20032;-85
2023/06/21 10:57:28;;;;;;;0.68;0.22;;;27.30;99.90;;;;;;5033892;28;20029;-86
2023/06/21 10:59:56;;;;;;;3.17;1.55;;;27.40;99.90;;;;;;5033669;28;20484;-86
2023/06/21 11:02:23;;;;;;;0.85;0.85;;;27.70;99.90;;;;;;5033595;28;20097;-86
2023/06/21 11:05:18;;;;;;;0.30;0.30;;;28.20;99.90;;;;;;5033303;28;20038;-86
2023/06/21 11:07:48;;;;;;;1.48;1.15;;;28.20;99.90;;;;;;5033076;28;20033;-86
2023/06/21 11:10:14;;;;;;;1.10;0.98;;;28.00;99.90;;;;;;5033635;28;20044;-86
2023/06/21 11:12:39;;;;;;;3.33;1.27;;;28.00;99.90;;;;;;5033257;28;20386;-86
2023/06/21 11:15:06;;;;;;;1.42;0.88;;;28.50;99.90;;;;;;5033284;28;20394;-86
2023/06/21 11:17:35;;;;;;;1.45;1.15;;;28.50;99.90;;;;;;5032313;28;20029;-86
2023/06/21 11:20:23;;;;;;;0.38;0.38;;;28.70;99.90;;;;;;5033235;28;20026;-86
2023/06/21 11:23:07;;;;;;;0.88;0.35;;;28.80;99.90;;;;;;5032726;28;20080;-86
2023/06/21 11:25:38;;;;;;;0.40;0.35;;;28.90;99.90;;;;;;5015370;28;20033;-86
2023/06/21 11:28:18;;;;;;;0.77;0.63;;;29.00;99.90;;;;;;5033238;28;20500;-85
2023/06/21 11:31:17;;;;;;;5.90;2.08;;;29.10;99.90;;;;;;5032635;28;20028;-86
2023/06/21 11:33:56;;;;;;;0.90;0.90;;;29.30;99.90;;;;;;5010942;28;20546;-86
2023/06/21 11:36:34;;;;;;;0.90;0.88;;;29.40;99.90;;;;;;5010831;28;20526;-86
2023/06/21 11:39:19;;;;;;;0.52;0.52;;;29.70;99.90;;;;;;5010852;28;20037;-86
2023/06/21 11:41:45;;;;;;;1.20;1.02;;;29.50;99.90;;;;;;5010672;28;20479;-86
2023/06/21 11:44:13;;;;;;;0.57;0.57;;;29.60;99.90;;;;;;5010827;28;20154;-86
2023/06/21 11:46:39;;;;;;;1.20;0.60;;;29.30;99.90;;;;;;5010948;28;20026;-86
2023/06/21 11:49:05;;;;;;;1.52;1.27;;;29.00;99.90;;;;;;5010902;28;20037;-86
2023/06/21 11:51:34;;;;;;;2.13;1.15;;;28.90;99.90;;;;;;5010437;28;20664;-87
2023/06/21 11:54:00;;;;;;;0.60;0.60;;;29.10;99.90;;;;;;5010616;28;20052;-86
2023/06/21 11:56:30;;;;;;;0.75;0.55;;;29.30;99.90;;;;;;5010696;28;20026;-86
2023/06/21 11:58:56;;;;;;;0.40;0.40;;;29.40;99.90;;;;;;5010651;28;20034;-86
2023/06/21 12:01:21;;;;;;;0.55;0.50;;;29.70;99.90;;;;;;5010596;28;20487;-86
2023/06/21 12:03:47;;;;;;;0.55;0.55;;;29.80;99.90;;;;;;5010524;28;20042;-86
2023/06/21 12:06:14;;;;;;;0.73;0.40;;;30.20;99.90;;;;;;5010201;28;20033;-86
2023/06/21 12:08:40;;;;;;;0.40;0.40;;;30.60;99.90;;;;;;5015787;28;20116;-86
2023/06/21 12:11:07;;;;;;;2.47;0.80;;;31.10;99.90;;;;;;5032730;28;20056;-86
2023/06/21 12:13:35;;;;;;;1.48;0.52;;;31.00;99.90;;;;;;5032197;28;20021;-86
2023/06/21 12:16:05;;;;;;;0.50;0.50;;;30.90;99.90;;;;;;5032221;28;20544;-86
2023/06/21 12:18:36;;;;;;;0.40;0.40;;;30.90;99.90;;;;;;5032111;28;20037;-86
2023/06/21 12:21:04;;;;;;;0.32;0.32;;;31.00;99.90;;;;;;5032090;28;20017;-86
2023/06/21 12:23:30;;;;;;;0.60;0.60;;;30.80;99.90;;;;;;5032180;28;20541;-86
2023/06/21 12:26:00;;;;;;;0.82;0.60;;;30.40;99.90;;;;;;5032513;28;20155;-87
2023/06/21 12:28:25;;;;;;;0.50;0.50;;;30.00;99.90;;;;;;5031905;28;20055;-87
2023/06/21 12:31:10;;;;;;;0.65;0.63;;;30.20;99.90;;;;;;5031844;28;20501;-87
2023/06/21 12:33:40;;;;;;;0.93;0.82;;;30.20;99.90;;;;;;5032397;28;20044;-86
2023/06/21 12:36:25;;;;;;;0.68;0.68;;;30.40;99.90;;;;;;5031720;28;20032;-86
2023/06/21 12:38:59;;;;;;;1.55;0.95;;;30.30;99.90;;;;;;5031959;28;20041;-86
2023/06/21 12:41:29;;;;;;;1.10;0.90;;;30.30;99.90;;;;;;5032138;28;20117;-86
2023/06/21 12:43:59;;;;;;;0.55;0.55;;;30.30;99.90;;;;;;5031850;28;20075;-86
2023/06/21 12:46:26;;;;;;;1.35;0.65;;;30.40;99.90;;;;;;5031922;28;20390;-86
2023/06/21 12:48:56;;;;;;;1.98;0.88;;;30.20;99.90;;;;;;5031470;28;20030;-86
2023/06/21 12:51:28;;;;;;;1.15;0.80;;;29.80;99.90;;;;;;5031918;28;20175;-86